sensor_id;sensor_type;location;lat;lon;timestamp;pressure;altitude;pressure_sealevel;temperature;humidity
56052;BME280;41919;42.648;23.384;2023-02-03T00:01:03;94766.91;;;3.32;70.90
56052;BME280;41919;42.648;23.384;2023-02-03T00:03:29;94770.94;;;3.35;70.97
56052;BME280;41919;42.648;23.384;2023-02-03T00:05:54;94760.19;;;3.13;71.37
56052;BME280;41919;42.648;23.384;2023-02-03T00:08:20;94703.84;;;2.83;71.37
56052;BME280;41919;42.648;23.384;2023-02-03T00:10:46;94726.31;;;2.90;72.05
56052;BME280;41919;42.648;23.384;2023-02-03T00:13:13;94705.38;;;2.67;72.73
56052;BME280;41919;42.648;23.384;2023-02-03T00:15:38;94713.47;;;2.72;73.19
56052;BME280;41919;42.648;23.384;2023-02-03T00:18:04;94696.41;;;2.53;74.61
56052;BME280;41919;42.648;23.384;2023-02-03T00:20:29;94790.63;;;3.02;75.17
56052;BME280;41919;42.648;23.384;2023-02-03T00:23:05;94786.88;;;2.96;76.24
56052;BME280;41919;42.648;23.384;2023-02-03T00:25:31;94770.31;;;2.81;76.42
56052;BME280;41919;42.648;23.384;2023-02-03T00:27:56;94786.25;;;3.02;76.09
56052;BME280;41919;42.648;23.384;2023-02-03T00:30:22;94795.91;;;3.00;76.43
56052;BME280;41919;42.648;23.384;2023-02-03T00:32:47;94791.50;;;2.92;76.74
56052;BME280;41919;42.648;23.384;2023-02-03T00:35:13;94797.38;;;3.03;76.99
56052;BME280;41919;42.648;23.384;2023-02-03T00:37:38;94771.97;;;2.90;77.18
56052;BME280;41919;42.648;23.384;2023-02-03T00:40:04;94806.41;;;2.99;78.07
56052;BME280;41919;42.648;23.384;2023-02-03T00:42:29;94736.19;;;2.51;78.47
56052;BME280;41919;42.648;23.384;2023-02-03T00:44:55;94730.97;;;2.43;79.13
56052;BME280;41919;42.648;23.384;2023-02-03T00:47:20;94774.56;;;2.72;79.91
56052;BME280;41919;42.648;23.384;2023-02-03T00:49:46;94772.03;;;2.54;80.22
56052;BME280;41919;42.648;23.384;2023-02-03T00:52:11;94834.81;;;2.81;80.68
56052;BME280;41919;42.648;23.384;2023-02-03T00:54:37;94807.19;;;2.73;80.70
56052;BME280;41919;42.648;23.384;2023-02-03T00:57:02;94797.38;;;2.77;80.66
56052;BME280;41919;42.648;23.384;2023-02-03T00:59:28;94748.59;;;2.29;80.82
56052;BME280;41919;42.648;23.384;2023-02-03T01:01:53;94771.22;;;2.53;80.73
56052;BME280;41919;42.648;23.384;2023-02-03T01:04:18;94717.06;;;2.35;80.53
56052;BME280;41919;42.648;23.384;2023-02-03T01:06:44;94738.34;;;2.55;80.06
56052;BME280;41919;42.648;23.384;2023-02-03T01:09:09;94741.59;;;2.58;80.51
56052;BME280;41919;42.648;23.384;2023-02-03T01:11:35;94812.59;;;3.06;80.21
56052;BME280;41919;42.648;23.384;2023-02-03T01:14:00;94814.41;;;3.13;79.80
56052;BME280;41919;42.648;23.384;2023-02-03T01:16:27;94834.03;;;3.06;81.36
56052;BME280;41919;42.648;23.384;2023-02-03T01:18:54;94835.38;;;3.10;81.77
56052;BME280;41919;42.648;23.384;2023-02-03T01:21:22;94824.84;;;3.04;82.41
56052;BME280;41919;42.648;23.384;2023-02-03T01:23:51;94730.47;;;2.39;82.67
56052;BME280;41919;42.648;23.384;2023-02-03T01:26:20;94746.84;;;2.48;82.96
56052;BME280;41919;42.648;23.384;2023-02-03T01:28:57;94811.13;;;2.85;82.44
56052;BME280;41919;42.648;23.384;2023-02-03T01:31:29;94750.69;;;2.44;82.02
56052;BME280;41919;42.648;23.384;2023-02-03T01:33:55;94719.66;;;2.18;82.47
56052;BME280;41919;42.648;23.384;2023-02-03T01:36:23;94789.94;;;2.55;82.15
56052;BME280;41919;42.648;23.384;2023-02-03T01:38:50;94772.63;;;2.48;80.70
56052;BME280;41919;42.648;23.384;2023-02-03T01:41:20;94817.28;;;2.66;80.33
56052;BME280;41919;42.648;23.384;2023-02-03T01:43:49;94832.47;;;2.69;79.99
56052;BME280;41919;42.648;23.384;2023-02-03T01:49:06;94842.94;;;2.50;80.20
56052;BME280;41919;42.648;23.384;2023-02-03T01:51:33;94818.97;;;2.40;79.79
56052;BME280;41919;42.648;23.384;2023-02-03T01:54:00;94832.63;;;2.50;79.63
56052;BME280;41919;42.648;23.384;2023-02-03T01:56:30;94847.06;;;2.43;79.82
56052;BME280;41919;42.648;23.384;2023-02-03T01:58:57;94747.22;;;1.71;80.87
56052;BME280;41919;42.648;23.384;2023-02-03T02:01:24;94844.63;;;2.41;80.38
56052;BME280;41919;42.648;23.384;2023-02-03T02:03:53;94851.69;;;2.39;80.71
56052;BME280;41919;42.648;23.384;2023-02-03T02:06:20;94814.31;;;2.25;80.69
56052;BME280;41919;42.648;23.384;2023-02-03T02:08:48;94773.16;;;1.88;80.45
56052;BME280;41919;42.648;23.384;2023-02-03T02:11:15;94841.16;;;2.32;79.62
56052;BME280;41919;42.648;23.384;2023-02-03T02:13:44;94842.41;;;2.28;80.26
56052;BME280;41919;42.648;23.384;2023-02-03T02:16:52;94841.69;;;2.36;79.92
56052;BME280;41919;42.648;23.384;2023-02-03T02:22:22;94829.63;;;2.09;80.78
56052;BME280;41919;42.648;23.384;2023-02-03T02:28:38;94837.56;;;1.98;81.01
56052;BME280;41919;42.648;23.384;2023-02-03T02:36:33;94837.56;;;1.98;80.73
56052;BME280;41919;42.648;23.384;2023-02-03T02:39:12;94772.78;;;1.55;80.76
56052;BME280;41919;42.648;23.384;2023-02-03T02:41:55;94870.59;;;2.12;80.47
56052;BME280;41919;42.648;23.384;2023-02-03T02:44:31;94783.50;;;1.60;80.03
56052;BME280;41919;42.648;23.384;2023-02-03T02:47:01;94839.47;;;1.95;80.34
56052;BME280;41919;42.648;23.384;2023-02-03T02:49:55;94813.50;;;1.79;80.47
56052;BME280;41919;42.648;23.384;2023-02-03T02:52:23;94837.19;;;1.92;80.07
56052;BME280;41919;42.648;23.384;2023-02-03T02:54:55;94835.72;;;1.90;80.02
56052;BME280;41919;42.648;23.384;2023-02-03T02:57:23;94760.41;;;1.41;79.97
56052;BME280;41919;42.648;23.384;2023-02-03T02:59:50;94850.94;;;1.83;79.84
56052;BME280;41919;42.648;23.384;2023-02-03T03:02:17;94855.31;;;1.73;80.39
56052;BME280;41919;42.648;23.384;2023-02-03T03:04:45;94787.09;;;1.40;79.64
56052;BME280;41919;42.648;23.384;2023-02-03T03:07:22;94841.47;;;1.74;79.43
56052;BME280;41919;42.648;23.384;2023-02-03T03:09:55;94849.34;;;1.72;78.70
56052;BME280;41919;42.648;23.384;2023-02-03T03:12:32;94867.09;;;1.75;79.00
56052;BME280;41919;42.648;23.384;2023-02-03T03:15:13;94868.56;;;1.78;78.68
56052;BME280;41919;42.648;23.384;2023-02-03T03:17:42;94783.31;;;1.34;78.04
56052;BME280;41919;42.648;23.384;2023-02-03T03:20:13;94868.88;;;1.75;77.97
56052;BME280;41919;42.648;23.384;2023-02-03T03:22:46;94861.28;;;1.73;77.42
56052;BME280;41919;42.648;23.384;2023-02-03T03:25:18;94887.81;;;1.84;77.10
56052;BME280;41919;42.648;23.384;2023-02-03T03:27:49;94877.25;;;1.77;76.81
56052;BME280;41919;42.648;23.384;2023-02-03T03:30:21;94881.03;;;1.83;76.95
56052;BME280;41919;42.648;23.384;2023-02-03T03:32:48;94802.84;;;1.36;76.19
56052;BME280;41919;42.648;23.384;2023-02-03T03:35:15;94779.03;;;1.25;75.31
56052;BME280;41919;42.648;23.384;2023-02-03T03:37:44;94805.81;;;1.32;75.34
56052;BME280;41919;42.648;23.384;2023-02-03T03:40:27;94885.91;;;1.86;74.73
56052;BME280;41919;42.648;23.384;2023-02-03T03:43:02;94813.88;;;1.56;74.39
56052;BME280;41919;42.648;23.384;2023-02-03T03:45:40;94900.81;;;1.82;74.58
56052;BME280;41919;42.648;23.384;2023-02-03T03:48:18;94914.91;;;1.98;74.16
56052;BME280;41919;42.648;23.384;2023-02-03T03:50:52;94878.59;;;1.81;73.92
56052;BME280;41919;42.648;23.384;2023-02-03T03:53:21;94909.44;;;2.01;73.86
56052;BME280;41919;42.648;23.384;2023-02-03T03:55:49;94681.97;;;0.60;73.96
56052;BME280;41919;42.648;23.384;2023-02-03T03:58:23;94819.34;;;1.44;73.84
56052;BME280;41919;42.648;23.384;2023-02-03T04:00:53;94837.34;;;1.53;73.70
56052;BME280;41919;42.648;23.384;2023-02-03T04:03:23;94903.84;;;1.77;74.20
56052;BME280;41919;42.648;23.384;2023-02-03T04:05:49;94919.34;;;2.05;74.19
56052;BME280;41919;42.648;23.384;2023-02-03T04:08:15;94845.34;;;1.50;73.54
56052;BME280;41919;42.648;23.384;2023-02-03T04:10:41;94890.94;;;1.77;73.52
56052;BME280;41919;42.648;23.384;2023-02-03T04:13:08;94723.66;;;0.73;73.21
56052;BME280;41919;42.648;23.384;2023-02-03T04:15:34;94931.72;;;2.02;73.45
56052;BME280;41919;42.648;23.384;2023-02-03T04:18:00;94926.56;;;2.02;73.32
56052;BME280;41919;42.648;23.384;2023-02-03T04:20:27;94890.53;;;1.82;73.84
56052;BME280;41919;42.648;23.384;2023-02-03T04:22:53;94951.00;;;2.25;73.90
56052;BME280;41919;42.648;23.384;2023-02-03T04:25:18;94957.91;;;2.34;73.59
56052;BME280;41919;42.648;23.384;2023-02-03T04:27:44;94945.94;;;2.33;73.66
56052;BME280;41919;42.648;23.384;2023-02-03T04:30:10;94949.91;;;2.28;73.73
56052;BME280;41919;42.648;23.384;2023-02-03T04:32:36;94943.28;;;2.25;74.43
56052;BME280;41919;42.648;23.384;2023-02-03T04:35:03;94857.75;;;1.65;73.85
56052;BME280;41919;42.648;23.384;2023-02-03T04:37:29;94958.47;;;2.28;74.02
56052;BME280;41919;42.648;23.384;2023-02-03T04:39:54;94845.94;;;1.44;73.80
56052;BME280;41919;42.648;23.384;2023-02-03T04:42:21;94953.72;;;1.96;74.56
56052;BME280;41919;42.648;23.384;2023-02-03T04:44:47;94966.94;;;2.11;74.51
56052;BME280;41919;42.648;23.384;2023-02-03T04:47:13;94901.28;;;1.68;74.67
56052;BME280;41919;42.648;23.384;2023-02-03T04:49:38;94953.19;;;1.83;75.03
56052;BME280;41919;42.648;23.384;2023-02-03T04:52:04;94985.19;;;2.00;75.38
56052;BME280;41919;42.648;23.384;2023-02-03T04:54:30;94871.16;;;1.31;75.81
56052;BME280;41919;42.648;23.384;2023-02-03T04:56:55;94965.97;;;1.84;75.77
56052;BME280;41919;42.648;23.384;2023-02-03T04:59:21;94756.97;;;0.55;75.24
56052;BME280;41919;42.648;23.384;2023-02-03T05:01:46;94916.13;;;1.56;75.41
56052;BME280;41919;42.648;23.384;2023-02-03T05:04:11;94922.19;;;1.65;75.25
56052;BME280;41919;42.648;23.384;2023-02-03T05:06:37;94988.69;;;1.99;74.62
56052;BME280;41919;42.648;23.384;2023-02-03T05:09:03;94996.16;;;2.02;74.69
56052;BME280;41919;42.648;23.384;2023-02-03T05:11:28;94974.34;;;1.86;74.89
56052;BME280;41919;42.648;23.384;2023-02-03T05:13:54;94991.94;;;2.01;74.82
56052;BME280;41919;42.648;23.384;2023-02-03T05:16:19;95003.69;;;2.23;74.68
56052;BME280;41919;42.648;23.384;2023-02-03T05:18:45;95005.06;;;2.17;74.61
56052;BME280;41919;42.648;23.384;2023-02-03T05:21:10;94990.13;;;2.11;74.22
56052;BME280;41919;42.648;23.384;2023-02-03T05:23:36;95005.19;;;2.15;73.83
56052;BME280;41919;42.648;23.384;2023-02-03T05:26:01;95011.13;;;2.26;73.67
56052;BME280;41919;42.648;23.384;2023-02-03T05:28:27;95001.56;;;2.08;73.94
56052;BME280;41919;42.648;23.384;2023-02-03T05:30:52;94936.19;;;1.52;74.46
56052;BME280;41919;42.648;23.384;2023-02-03T05:33:18;94951.19;;;1.67;74.68
56052;BME280;41919;42.648;23.384;2023-02-03T05:35:43;95007.91;;;2.14;74.33
56052;BME280;41919;42.648;23.384;2023-02-03T05:38:09;94935.47;;;1.70;74.15
56052;BME280;41919;42.648;23.384;2023-02-03T05:40:34;95012.13;;;2.15;76.86
56052;BME280;41919;42.648;23.384;2023-02-03T05:43:18;95007.34;;;2.20;76.86
56052;BME280;41919;42.648;23.384;2023-02-03T05:45:44;94908.94;;;1.50;74.60
56052;BME280;41919;42.648;23.384;2023-02-03T05:48:09;95014.75;;;2.05;74.61
56052;BME280;41919;42.648;23.384;2023-02-03T05:50:35;94965.28;;;1.72;74.58
56052;BME280;41919;42.648;23.384;2023-02-03T05:53:02;95010.28;;;1.98;74.69
56052;BME280;41919;42.648;23.384;2023-02-03T05:55:28;95015.69;;;1.94;74.48
56052;BME280;41919;42.648;23.384;2023-02-03T05:57:54;94912.88;;;1.44;74.58
56052;BME280;41919;42.648;23.384;2023-02-03T06:00:21;94944.06;;;1.41;74.28
56052;BME280;41919;42.648;23.384;2023-02-03T06:02:51;95010.69;;;1.93;74.82
56052;BME280;41919;42.648;23.384;2023-02-03T06:05:17;94814.75;;;0.71;74.50
56052;BME280;41919;42.648;23.384;2023-02-03T06:07:43;94944.06;;;1.41;74.62
56052;BME280;41919;42.648;23.384;2023-02-03T06:10:09;94976.88;;;1.39;75.08
56052;BME280;41919;42.648;23.384;2023-02-03T06:12:36;95029.09;;;2.08;74.19
56052;BME280;41919;42.648;23.384;2023-02-03T06:15:02;94813.03;;;0.52;74.54
56052;BME280;41919;42.648;23.384;2023-02-03T06:17:27;95033.47;;;1.98;74.57
56052;BME280;41919;42.648;23.384;2023-02-03T06:19:53;94797.53;;;0.91;73.10
56052;BME280;41919;42.648;23.384;2023-02-03T06:22:18;94979.16;;;3.28;69.71
56052;BME280;41919;42.648;23.384;2023-02-03T06:24:43;95028.53;;;4.57;64.68
56052;BME280;41919;42.648;23.384;2023-02-03T06:27:10;95001.22;;;5.30;59.38
56052;BME280;41919;42.648;23.384;2023-02-03T06:29:36;95014.47;;;6.50;56.78
56052;BME280;41919;42.648;23.384;2023-02-03T06:32:02;94968.28;;;7.31;52.47
56052;BME280;41919;42.648;23.384;2023-02-03T06:34:27;95059.16;;;8.70;47.43
56052;BME280;41919;42.648;23.384;2023-02-03T06:36:53;94980.03;;;8.56;45.48
56052;BME280;41919;42.648;23.384;2023-02-03T06:39:18;95051.53;;;9.71;43.26
56052;BME280;41919;42.648;23.384;2023-02-03T06:41:43;95034.16;;;10.06;42.39
56052;BME280;41919;42.648;23.384;2023-02-03T06:44:09;94973.34;;;10.12;40.32
56052;BME280;41919;42.648;23.384;2023-02-03T06:46:34;95037.66;;;11.05;39.04
56052;BME280;41919;42.648;23.384;2023-02-03T06:49:00;95042.31;;;11.16;38.51
56052;BME280;41919;42.648;23.384;2023-02-03T06:51:25;94983.47;;;11.73;36.65
56052;BME280;41919;42.648;23.384;2023-02-03T06:53:51;94953.25;;;12.38;34.70
56052;BME280;41919;42.648;23.384;2023-02-03T06:56:16;95039.66;;;13.56;33.37
56052;BME280;41919;42.648;23.384;2023-02-03T06:58:41;95051.75;;;13.57;32.53
56052;BME280;41919;42.648;23.384;2023-02-03T07:01:07;95028.41;;;13.81;32.20
56052;BME280;41919;42.648;23.384;2023-02-03T07:03:32;94838.38;;;12.28;32.29
56052;BME280;41919;42.648;23.384;2023-02-03T07:05:58;94996.06;;;14.05;31.52
56052;BME280;41919;42.648;23.384;2023-02-03T07:08:23;94966.44;;;13.98;30.32
56052;BME280;41919;42.648;23.384;2023-02-03T07:10:53;95032.63;;;14.64;30.36
56052;BME280;41919;42.648;23.384;2023-02-03T07:13:18;94974.03;;;14.75;29.76
56052;BME280;41919;42.648;23.384;2023-02-03T07:15:45;94980.97;;;14.88;29.63
56052;BME280;41919;42.648;23.384;2023-02-03T07:18:10;95037.88;;;16.17;28.44
56052;BME280;41919;42.648;23.384;2023-02-03T07:20:36;94953.47;;;16.64;26.97
56052;BME280;41919;42.648;23.384;2023-02-03T07:23:02;95033.03;;;17.20;26.82
56052;BME280;41919;42.648;23.384;2023-02-03T07:25:29;94939.44;;;16.75;25.59
56052;BME280;41919;42.648;23.384;2023-02-03T07:27:55;95046.06;;;17.50;26.00
56052;BME280;41919;42.648;23.384;2023-02-03T07:30:20;95040.34;;;18.11;25.22
56052;BME280;41919;42.648;23.384;2023-02-03T07:32:47;95012.59;;;18.13;24.27
56052;BME280;41919;42.648;23.384;2023-02-03T07:35:13;95050.13;;;17.70;24.68
56052;BME280;41919;42.648;23.384;2023-02-03T07:37:40;94957.13;;;15.92;26.06
56052;BME280;41919;42.648;23.384;2023-02-03T07:40:06;95049.97;;;17.07;25.39
56052;BME280;41919;42.648;23.384;2023-02-03T07:42:31;95053.44;;;16.84;30.91
56052;BME280;41919;42.648;23.384;2023-02-03T07:44:56;95050.78;;;16.96;25.95
56052;BME280;41919;42.648;23.384;2023-02-03T07:47:22;95065.78;;;16.48;26.55
56052;BME280;41919;42.648;23.384;2023-02-03T07:49:47;95067.22;;;17.50;25.47
56052;BME280;41919;42.648;23.384;2023-02-03T07:52:13;95067.28;;;17.27;25.65
56052;BME280;41919;42.648;23.384;2023-02-03T07:54:38;95058.28;;;17.28;24.93
56052;BME280;41919;42.648;23.384;2023-02-03T07:57:03;95022.72;;;17.59;24.65
56052;BME280;41919;42.648;23.384;2023-02-03T07:59:29;95037.84;;;17.35;25.20
56052;BME280;41919;42.648;23.384;2023-02-03T08:01:54;95059.09;;;18.60;23.63
56052;BME280;41919;42.648;23.384;2023-02-03T08:04:21;95051.88;;;19.06;22.76
56052;BME280;41919;42.648;23.384;2023-02-03T08:06:46;95055.09;;;18.91;22.74
56052;BME280;41919;42.648;23.384;2023-02-03T08:09:12;95052.03;;;18.99;22.73
56052;BME280;41919;42.648;23.384;2023-02-03T08:11:37;95051.78;;;18.67;23.02
56052;BME280;41919;42.648;23.384;2023-02-03T08:14:03;94995.41;;;18.67;22.58
56052;BME280;41919;42.648;23.384;2023-02-03T08:16:29;95063.28;;;19.73;21.89
56052;BME280;41919;42.648;23.384;2023-02-03T08:18:54;95059.31;;;20.57;21.39
56052;BME280;41919;42.648;23.384;2023-02-03T08:21:20;94995.88;;;20.23;20.87
56052;BME280;41919;42.648;23.384;2023-02-03T08:23:45;94992.75;;;20.31;21.38
56052;BME280;41919;42.648;23.384;2023-02-03T08:26:10;94982.06;;;20.59;20.50
56052;BME280;41919;42.648;23.384;2023-02-03T08:28:36;95000.78;;;20.09;20.95
56052;BME280;41919;42.648;23.384;2023-02-03T08:31:08;95074.44;;;20.89;21.01
56052;BME280;41919;42.648;23.384;2023-02-03T08:33:34;95031.81;;;21.79;19.31
56052;BME280;41919;42.648;23.384;2023-02-03T08:35:59;95025.56;;;20.90;19.85
56052;BME280;41919;42.648;23.384;2023-02-03T08:38:25;95069.56;;;19.45;21.58
56052;BME280;41919;42.648;23.384;2023-02-03T08:40:50;95022.13;;;18.31;22.31
56052;BME280;41919;42.648;23.384;2023-02-03T08:43:16;95021.59;;;19.46;20.98
56052;BME280;41919;42.648;23.384;2023-02-03T08:45:41;95036.41;;;20.18;20.79
56052;BME280;41919;42.648;23.384;2023-02-03T08:48:07;95082.94;;;21.33;19.77
56052;BME280;41919;42.648;23.384;2023-02-03T08:50:33;95089.44;;;21.53;19.09
56052;BME280;41919;42.648;23.384;2023-02-03T08:52:58;95021.41;;;19.75;20.66
56052;BME280;41919;42.648;23.384;2023-02-03T08:55:24;95037.38;;;19.80;20.76
56052;BME280;41919;42.648;23.384;2023-02-03T08:57:49;95055.38;;;19.34;21.12
56052;BME280;41919;42.648;23.384;2023-02-03T09:00:15;95057.41;;;19.93;20.91
56052;BME280;41919;42.648;23.384;2023-02-03T09:02:40;95092.78;;;21.33;19.55
56052;BME280;41919;42.648;23.384;2023-02-03T09:05:06;95102.44;;;19.66;21.50
56052;BME280;41919;42.648;23.384;2023-02-03T09:07:32;95022.25;;;18.92;21.94
56052;BME280;41919;42.648;23.384;2023-02-03T09:09:57;95108.59;;;18.14;23.21
56052;BME280;41919;42.648;23.384;2023-02-03T09:12:22;95044.38;;;17.44;23.94
56052;BME280;41919;42.648;23.384;2023-02-03T09:14:48;95086.09;;;16.71;25.14
56052;BME280;41919;42.648;23.384;2023-02-03T09:17:13;95082.59;;;14.64;28.14
56052;BME280;41919;42.648;23.384;2023-02-03T09:19:39;95105.63;;;15.49;27.25
56052;BME280;41919;42.648;23.384;2023-02-03T09:22:04;95082.81;;;15.61;27.57
56052;BME280;41919;42.648;23.384;2023-02-03T09:24:30;95092.34;;;15.44;27.38
56052;BME280;41919;42.648;23.384;2023-02-03T09:26:56;95070.72;;;14.80;28.19
56052;BME280;41919;42.648;23.384;2023-02-03T09:29:21;95004.19;;;14.29;29.13
56052;BME280;41919;42.648;23.384;2023-02-03T09:31:48;95081.72;;;14.70;28.81
56052;BME280;41919;42.648;23.384;2023-02-03T09:34:17;95003.22;;;13.66;29.60
56052;BME280;41919;42.648;23.384;2023-02-03T09:36:43;95078.56;;;13.14;30.76
56052;BME280;41919;42.648;23.384;2023-02-03T09:39:08;94994.19;;;12.32;31.17
56052;BME280;41919;42.648;23.384;2023-02-03T09:41:50;95080.59;;;13.12;30.99
56052;BME280;41919;42.648;23.384;2023-02-03T09:44:29;95075.84;;;12.49;32.14
56052;BME280;41919;42.648;23.384;2023-02-03T09:47:13;95077.16;;;11.23;33.91
56052;BME280;41919;42.648;23.384;2023-02-03T09:49:47;95086.69;;;10.96;34.58
56052;BME280;41919;42.648;23.384;2023-02-03T09:52:18;95045.78;;;10.25;35.43
56052;BME280;41919;42.648;23.384;2023-02-03T09:54:59;95008.56;;;9.95;35.26
56052;BME280;41919;42.648;23.384;2023-02-03T09:57:29;95072.97;;;10.31;35.65
56052;BME280;41919;42.648;23.384;2023-02-03T09:59:57;95017.53;;;9.64;35.63
56052;BME280;41919;42.648;23.384;2023-02-03T10:07:56;95017.22;;;9.52;35.88
56052;BME280;41919;42.648;23.384;2023-02-03T10:13:11;95086.53;;;9.98;36.07
56052;BME280;41919;42.648;23.384;2023-02-03T10:15:59;95005.38;;;9.50;35.65
56052;BME280;41919;42.648;23.384;2023-02-03T10:18:33;95012.25;;;8.99;36.12
56052;BME280;41919;42.648;23.384;2023-02-03T10:21:11;95025.03;;;8.50;36.25
56052;BME280;41919;42.648;23.384;2023-02-03T10:23:39;95056.56;;;8.32;37.02
56052;BME280;41919;42.648;23.384;2023-02-03T10:26:15;95091.97;;;8.03;38.39
56052;BME280;41919;42.648;23.384;2023-02-03T10:31:19;95069.53;;;6.77;41.36
56052;BME280;41919;42.648;23.384;2023-02-03T10:33:46;95090.59;;;6.98;54.47
56052;BME280;41919;42.648;23.384;2023-02-03T10:41:54;95062.00;;;7.61;45.43
56052;BME280;41919;42.648;23.384;2023-02-03T10:44:35;95070.03;;;7.74;40.78
56052;BME280;41919;42.648;23.384;2023-02-03T10:47:01;95068.84;;;7.62;39.90
56052;BME280;41919;42.648;23.384;2023-02-03T10:49:33;94994.66;;;6.49;40.42
56052;BME280;41919;42.648;23.384;2023-02-03T10:52:00;95086.59;;;6.79;41.22
56052;BME280;41919;42.648;23.384;2023-02-03T10:54:32;95085.78;;;6.87;41.50
56052;BME280;41919;42.648;23.384;2023-02-03T10:57:02;95011.44;;;6.22;42.49
56052;BME280;41919;42.648;23.384;2023-02-03T10:59:32;95016.47;;;6.15;42.91
56052;BME280;41919;42.648;23.384;2023-02-03T11:01:58;95028.97;;;6.03;42.32
56052;BME280;41919;42.648;23.384;2023-02-03T11:04:30;95082.66;;;6.11;42.42
56052;BME280;41919;42.648;23.384;2023-02-03T11:07:00;95092.38;;;6.34;42.54
56052;BME280;41919;42.648;23.384;2023-02-03T11:12:19;95089.28;;;5.89;39.72
56052;BME280;41919;42.648;23.384;2023-02-03T11:14:47;95096.06;;;5.82;39.78
56052;BME280;41919;42.648;23.384;2023-02-03T11:17:19;95077.09;;;5.73;40.25
56052;BME280;41919;42.648;23.384;2023-02-03T11:19:49;95067.56;;;5.74;40.69
56052;BME280;41919;42.648;23.384;2023-02-03T11:22:30;95020.53;;;5.68;41.07
56052;BME280;41919;42.648;23.384;2023-02-03T11:24:56;95071.75;;;6.32;40.79
56052;BME280;41919;42.648;23.384;2023-02-03T11:27:23;95023.28;;;6.16;40.72
56052;BME280;41919;42.648;23.384;2023-02-03T11:30:05;95039.34;;;6.20;39.74
56052;BME280;41919;42.648;23.384;2023-02-03T11:32:34;95055.72;;;6.37;39.54
56052;BME280;41919;42.648;23.384;2023-02-03T11:37:43;95034.81;;;6.22;38.51
56052;BME280;41919;42.648;23.384;2023-02-03T11:42:45;94986.97;;;5.83;39.54
56052;BME280;41919;42.648;23.384;2023-02-03T11:45:28;94993.59;;;5.94;40.19
56052;BME280;41919;42.648;23.384;2023-02-03T11:53:42;95032.81;;;6.88;40.54
56052;BME280;41919;42.648;23.384;2023-02-03T11:59:17;95018.44;;;7.09;39.95
56052;BME280;41919;42.648;23.384;2023-02-03T12:01:56;95028.25;;;6.98;38.45
56052;BME280;41919;42.648;23.384;2023-02-03T12:05:05;95032.34;;;6.84;37.81
56052;BME280;41919;42.648;23.384;2023-02-03T12:10:37;95014.31;;;6.43;37.21
56052;BME280;41919;42.648;23.384;2023-02-03T12:16:02;95030.06;;;6.34;37.89
56052;BME280;41919;42.648;23.384;2023-02-03T12:26:24;95045.63;;;6.50;36.47
56052;BME280;41919;42.648;23.384;2023-02-03T12:31:45;95029.63;;;6.14;35.16
56052;BME280;41919;42.648;23.384;2023-02-03T12:34:27;95025.06;;;5.75;36.52
56052;BME280;41919;42.648;23.384;2023-02-03T12:42:06;94983.09;;;5.30;37.65
56052;BME280;41919;42.648;23.384;2023-02-03T12:44:46;94921.66;;;4.98;38.12
56052;BME280;41919;42.648;23.384;2023-02-03T12:47:17;94999.94;;;5.59;38.32
56052;BME280;41919;42.648;23.384;2023-02-03T12:49:58;94934.13;;;4.94;38.45
56052;BME280;41919;42.648;23.384;2023-02-03T12:52:35;94996.00;;;5.14;39.18
56052;BME280;41919;42.648;23.384;2023-02-03T12:57:37;94912.41;;;4.79;39.36
56052;BME280;41919;42.648;23.384;2023-02-03T13:10:56;94990.72;;;5.56;39.77
56052;BME280;41919;42.648;23.384;2023-02-03T13:13:34;94966.56;;;5.64;39.89
56052;BME280;41919;42.648;23.384;2023-02-03T13:16:06;94904.84;;;5.18;39.98
56052;BME280;41919;42.648;23.384;2023-02-03T13:18:44;94982.59;;;5.67;41.00
56052;BME280;41919;42.648;23.384;2023-02-03T13:21:11;94918.78;;;5.34;41.65
56052;BME280;41919;42.648;23.384;2023-02-03T13:23:41;94978.72;;;5.55;41.79
56052;BME280;41919;42.648;23.384;2023-02-03T13:29:05;94988.44;;;5.61;42.29
56052;BME280;41919;42.648;23.384;2023-02-03T13:42:22;94992.47;;;5.31;43.09
56052;BME280;41919;42.648;23.384;2023-02-03T13:47:45;94919.69;;;4.75;42.66
56052;BME280;41919;42.648;23.384;2023-02-03T13:50:29;94963.31;;;5.04;43.07
56052;BME280;41919;42.648;23.384;2023-02-03T13:58:00;94916.47;;;4.30;44.31
56052;BME280;41919;42.648;23.384;2023-02-03T14:05:52;95000.56;;;4.61;45.01
56052;BME280;41919;42.648;23.384;2023-02-03T14:16:51;95016.47;;;4.40;47.09
56052;BME280;41919;42.648;23.384;2023-02-03T14:21:57;95001.47;;;4.51;46.31
56052;BME280;41919;42.648;23.384;2023-02-03T14:24:33;94939.66;;;4.06;46.78
56052;BME280;41919;42.648;23.384;2023-02-03T14:27:03;94923.19;;;4.07;46.25
56052;BME280;41919;42.648;23.384;2023-02-03T14:29:32;95009.78;;;4.63;46.38
56052;BME280;41919;42.648;23.384;2023-02-03T14:32:02;95016.25;;;4.67;45.85
56052;BME280;41919;42.648;23.384;2023-02-03T14:34:43;94924.59;;;4.01;46.00
56052;BME280;41919;42.648;23.384;2023-02-03T14:51:36;94997.03;;;4.36;46.81
56052;BME280;41919;42.648;23.384;2023-02-03T14:59:48;95003.13;;;4.26;44.79
56052;BME280;41919;42.648;23.384;2023-02-03T15:02:21;94988.22;;;4.20;44.64
56052;BME280;41919;42.648;23.384;2023-02-03T15:04:50;94983.97;;;4.11;44.63
56052;BME280;41919;42.648;23.384;2023-02-03T15:07:40;94978.84;;;4.19;44.86
56052;BME280;41919;42.648;23.384;2023-02-03T15:10:21;94965.91;;;4.19;44.87
56052;BME280;41919;42.648;23.384;2023-02-03T15:12:50;94951.19;;;4.20;44.66
56052;BME280;41919;42.648;23.384;2023-02-03T15:15:24;94951.19;;;4.20;44.91
56052;BME280;41919;42.648;23.384;2023-02-03T15:17:53;94948.13;;;4.16;44.87
56052;BME280;41919;42.648;23.384;2023-02-03T15:20:35;94947.50;;;4.22;45.18
56052;BME280;41919;42.648;23.384;2023-02-03T15:23:17;94863.88;;;3.79;45.28
56052;BME280;41919;42.648;23.384;2023-02-03T15:25:43;94855.63;;;3.76;45.19
56052;BME280;41919;42.648;23.384;2023-02-03T15:28:16;94859.97;;;3.75;45.08